Time;durP1;ratioP1;P1;durP2;ratioP2;P2;SDS_P1;SDS_P2;PMS_P1;PMS_P2;Temp;Humidity;BMP_temperature;BMP_pressure;BME280_temperature;BME280_humidity;BME280_pressure;Samples;Min_cycle;Max_cycle;Signal;HPM_P1;HPM_P2
2023/07/19 00:01:22;;;;;;;;;;;15.10;58.70;;;;;;4106715;28;19918;-87
2023/07/19 00:03:23;;;;;;;;;;;15.10;58.90;;;;;;4106247;28;19937;-87
2023/07/19 00:05:23;;;;;;;;;;;15.10;59.00;;;;;;4106049;28;20335;-88
2023/07/19 00:07:26;;;;;;;;;;;15.10;58.90;;;;;;4104209;28;19918;-87
2023/07/19 00:09:41;;;;;;;;;;;15.10;58.70;;;;;;4123221;28;19922;-87
2023/07/19 00:11:47;;;;;;;;;;;15.10;58.60;;;;;;4105085;28;20412;-87
2023/07/19 00:13:48;;;;;;;;;;;15.10;58.50;;;;;;4090726;28;19949;-88
2023/07/19 00:15:49;;;;;;;;;;;15.10;58.60;;;;;;4109003;28;20881;-87
2023/07/19 00:17:52;;;;;;;;;;;15.00;58.80;;;;;;4107445;28;19918;-87
2023/07/19 00:19:54;;;;;;;;;;;15.00;58.20;;;;;;4107997;28;19957;-87
2023/07/19 00:21:58;;;;;;;;;;;15.10;58.50;;;;;;4097336;28;19918;-86
2023/07/19 00:23:59;;;;;;;;;;;15.00;58.80;;;;;;4130445;28;20013;-87
2023/07/19 00:26:11;;;;;;;;;;;15.00;59.00;;;;;;4114453;28;20311;-88
2023/07/19 00:28:12;;;;;;;;;;;15.00;59.20;;;;;;4107911;28;20015;-88
2023/07/19 00:30:13;;;;;;;;;;;15.00;59.40;;;;;;4107390;28;20428;-88
2023/07/19 00:32:28;;;;;;;;;;;15.00;59.40;;;;;;4107763;28;19918;-87
2023/07/19 00:34:48;;;;;;;;;;;15.00;59.40;;;;;;4097894;28;19930;-87
2023/07/19 00:37:09;;;;;;;;;;;15.00;59.40;;;;;;4105477;28;19929;-87
2023/07/19 00:39:29;;;;;;;;;;;15.00;59.40;;;;;;4104273;28;19922;-87
2023/07/19 00:41:50;;;;;;;;;;;14.90;59.50;;;;;;4105456;28;19914;-87
2023/07/19 00:44:11;;;;;;;;;;;15.00;59.40;;;;;;4105784;28;19918;-88
2023/07/19 00:46:32;;;;;;;;;;;15.00;59.50;;;;;;4106376;28;19925;-87
2023/07/19 00:48:53;;;;;;;;;;;14.90;59.40;;;;;;4105451;28;19999;-86
2023/07/19 00:51:14;;;;;;;;;;;15.00;59.60;;;;;;4104696;28;19914;-87
2023/07/19 00:53:35;;;;;;;;;;;15.00;59.80;;;;;;4106117;28;19937;-87
2023/07/19 00:55:56;;;;;;;;;;;15.00;59.80;;;;;;4103582;28;19918;-87
2023/07/19 00:58:21;;;;;;;;;;;15.00;60.00;;;;;;4105813;28;19915;-87
2023/07/19 01:00:45;;;;;;;;;;;14.90;60.00;;;;;;4105113;28;19928;-86
2023/07/19 01:03:05;;;;;;;;;;;14.90;60.10;;;;;;4100280;28;19918;-87
2023/07/19 01:05:06;;;;;;;;;;;15.00;60.20;;;;;;4109695;28;20038;-87
2023/07/19 01:07:07;;;;;;;;;;;15.00;60.30;;;;;;4106659;28;20403;-87
2023/07/19 01:09:08;;;;;;;;;;;14.90;60.20;;;;;;4106162;28;19981;-86
2023/07/19 01:11:09;;;;;;;;;;;15.00;60.20;;;;;;4091109;28;19927;-87
2023/07/19 01:13:11;;;;;;;;;;;15.00;60.00;;;;;;4092589;28;19988;-87
2023/07/19 01:15:11;;;;;;;;;;;14.90;59.70;;;;;;4117833;28;19918;-87
2023/07/19 01:17:12;;;;;;;;;;;14.90;59.40;;;;;;4106347;28;20092;-87
2023/07/19 01:19:14;;;;;;;;;;;14.90;59.20;;;;;;4091310;28;19922;-87
2023/07/19 01:21:15;;;;;;;;;;;14.90;59.10;;;;;;4104748;28;19933;-88
2023/07/19 01:23:16;;;;;;;;;;;14.90;59.30;;;;;;4103680;28;19918;-87
2023/07/19 01:25:16;;;;;;;;;;;14.90;59.30;;;;;;4104678;28;20014;-88
2023/07/19 01:27:17;;;;;;;;;;;14.90;59.70;;;;;;4105060;28;19933;-87
2023/07/19 01:29:17;;;;;;;;;;;14.90;59.80;;;;;;4104032;28;20683;-87
2023/07/19 01:31:18;;;;;;;;;;;14.80;60.00;;;;;;4104416;28;19914;-88
2023/07/19 01:33:18;;;;;;;;;;;14.80;60.20;;;;;;4105214;28;20412;-87
2023/07/19 01:35:19;;;;;;;;;;;14.80;60.70;;;;;;4117627;28;19921;-88
2023/07/19 01:37:19;;;;;;;;;;;14.80;60.70;;;;;;4107993;28;19957;-87
2023/07/19 01:39:20;;;;;;;;;;;14.80;60.70;;;;;;4107965;28;20130;-87
2023/07/19 01:41:21;;;;;;;;;;;14.70;60.90;;;;;;4108606;28;19937;-86
2023/07/19 01:43:21;;;;;;;;;;;14.80;61.20;;;;;;4108330;28;19914;-86
2023/07/19 01:45:22;;;;;;;;;;;14.70;61.10;;;;;;4108366;28;19918;-86
2023/07/19 01:47:22;;;;;;;;;;;14.70;61.30;;;;;;4109946;28;20033;-87
2023/07/19 01:49:23;;;;;;;;;;;14.80;61.40;;;;;;4108030;28;19914;-87
2023/07/19 01:51:23;;;;;;;;;;;14.70;61.40;;;;;;4107224;28;19965;-87
2023/07/19 01:53:24;;;;;;;;;;;14.70;61.30;;;;;;4107217;28;19922;-87
2023/07/19 01:55:25;;;;;;;;;;;14.70;61.40;;;;;;4107987;28;19925;-86
2023/07/19 01:57:26;;;;;;;;;;;14.70;61.60;;;;;;4107309;28;19930;-87
2023/07/19 01:59:26;;;;;;;;;;;14.70;61.80;;;;;;4108325;28;19914;-87
2023/07/19 02:01:27;;;;;;;;;;;14.70;61.80;;;;;;4106388;28;19929;-86
2023/07/19 02:03:27;;;;;;;;;;;14.80;61.80;;;;;;4108982;28;19961;-87
2023/07/19 02:05:28;;;;;;;;;;;14.70;61.80;;;;;;4094215;28;19992;-87
2023/07/19 02:07:28;;;;;;;;;;;14.70;61.90;;;;;;4106904;28;19921;-86
2023/07/19 02:09:29;;;;;;;;;;;14.70;62.10;;;;;;4111068;28;20220;-87
2023/07/19 02:11:30;;;;;;;;;;;14.70;62.10;;;;;;4105760;28;19922;-86
2023/07/19 02:13:31;;;;;;;;;;;14.80;62.30;;;;;;4094709;28;19923;-87
2023/07/19 02:15:31;;;;;;;;;;;14.70;62.20;;;;;;4102850;28;19933;-87
2023/07/19 02:17:32;;;;;;;;;;;14.70;62.20;;;;;;4108638;28;19985;-87
2023/07/19 02:19:32;;;;;;;;;;;14.70;62.10;;;;;;4121915;28;19918;-87
2023/07/19 02:21:33;;;;;;;;;;;14.70;62.30;;;;;;4105965;28;19914;-87
2023/07/19 02:23:34;;;;;;;;;;;14.70;62.40;;;;;;4104103;28;19926;-86
2023/07/19 02:25:35;;;;;;;;;;;14.70;62.50;;;;;;4107625;28;19922;-86
2023/07/19 02:27:35;;;;;;;;;;;14.70;62.60;;;;;;4109319;28;19914;-86
2023/07/19 02:29:36;;;;;;;;;;;14.80;62.70;;;;;;4105664;28;20450;-86
2023/07/19 02:31:37;;;;;;;;;;;14.80;62.90;;;;;;4092133;28;19997;-86
2023/07/19 02:33:38;;;;;;;;;;;14.70;62.70;;;;;;4103795;28;19929;-87
2023/07/19 02:35:39;;;;;;;;;;;14.70;62.60;;;;;;4104702;28;19910;-86
2023/07/19 02:37:40;;;;;;;;;;;14.80;62.70;;;;;;4090660;28;19973;-87
2023/07/19 02:40:02;;;;;;;;;;;14.80;62.70;;;;;;4105257;28;19982;-87
2023/07/19 02:42:04;;;;;;;;;;;14.70;62.60;;;;;;4108719;28;20375;-86
2023/07/19 02:44:04;;;;;;;;;;;14.70;63.00;;;;;;4107037;28;19923;-87
2023/07/19 02:46:05;;;;;;;;;;;14.80;62.90;;;;;;4104191;28;19918;-86
2023/07/19 02:48:05;;;;;;;;;;;14.60;62.60;;;;;;4092365;28;20017;-86
2023/07/19 02:50:06;;;;;;;;;;;14.70;62.60;;;;;;4105497;28;19914;-86
2023/07/19 02:52:07;;;;;;;;;;;14.70;62.30;;;;;;4092992;28;19997;-86
2023/07/19 02:54:08;;;;;;;;;;;14.70;62.50;;;;;;4116863;28;20517;-87
2023/07/19 02:56:12;;;;;;;;;;;14.70;62.80;;;;;;4107927;28;19955;-86
2023/07/19 02:58:13;;;;;;;;;;;14.60;62.90;;;;;;4109381;28;20414;-86
2023/07/19 03:00:13;;;;;;;;;;;14.70;63.20;;;;;;4106966;28;19914;-86
2023/07/19 03:02:14;;;;;;;;;;;14.60;63.20;;;;;;4108157;28;19945;-86
2023/07/19 03:04:14;;;;;;;;;;;14.70;63.60;;;;;;4109921;28;19915;-86
2023/07/19 03:06:15;;;;;;;;;;;14.60;63.20;;;;;;4106582;28;19954;-86
2023/07/19 03:08:16;;;;;;;;;;;14.60;63.40;;;;;;4108598;28;19921;-87
2023/07/19 03:10:16;;;;;;;;;;;14.60;64.20;;;;;;4110058;28;19934;-86
2023/07/19 03:12:17;;;;;;;;;;;14.60;63.50;;;;;;4113276;28;19929;-86
2023/07/19 03:14:17;;;;;;;;;;;14.70;63.80;;;;;;4106937;28;19932;-86
2023/07/19 03:16:18;;;;;;;;;;;14.70;63.80;;;;;;4106335;28;19922;-89
2023/07/19 03:18:19;;;;;;;;;;;14.60;63.80;;;;;;4105027;28;19945;-86
2023/07/19 03:20:19;;;;;;;;;;;14.60;63.90;;;;;;4106419;28;20013;-87
2023/07/19 03:22:20;;;;;;;;;;;14.60;64.00;;;;;;4106840;28;20123;-87
2023/07/19 03:24:20;;;;;;;;;;;14.60;63.90;;;;;;4105849;28;19920;-86
2023/07/19 03:26:23;;;;;;;;;;;14.60;64.10;;;;;;4104192;28;19925;-86
2023/07/19 03:28:28;;;;;;;;;;;14.60;63.80;;;;;;4089999;28;19918;-86
2023/07/19 03:30:30;;;;;;;;;;;14.60;63.90;;;;;;4107273;28;20007;-86
2023/07/19 03:32:30;;;;;;;;;;;14.60;64.20;;;;;;4105446;28;19929;-86
2023/07/19 03:34:31;;;;;;;;;;;14.60;64.20;;;;;;4108184;28;20027;-86
2023/07/19 03:36:31;;;;;;;;;;;14.70;64.20;;;;;;4105757;28;19918;-87
2023/07/19 03:38:32;;;;;;;;;;;14.60;64.30;;;;;;4090248;28;19914;-86
2023/07/19 03:40:32;;;;;;;;;;;14.70;64.40;;;;;;4106627;28;19925;-86
2023/07/19 03:42:33;;;;;;;;;;;14.60;64.30;;;;;;4104779;28;19925;-86
2023/07/19 03:44:34;;;;;;;;;;;14.60;64.40;;;;;;4107065;28;19918;-86
2023/07/19 03:46:34;;;;;;;;;;;14.70;64.60;;;;;;4107965;28;20399;-85
2023/07/19 03:48:37;;;;;;;;;;;14.60;64.80;;;;;;4105664;28;19925;-87
2023/07/19 03:50:37;;;;;;;;;;;14.60;64.90;;;;;;4104986;28;20021;-86
2023/07/19 03:52:38;;;;;;;;;;;14.60;65.00;;;;;;4127059;28;19933;-86
2023/07/19 03:54:39;;;;;;;;;;;14.60;64.40;;;;;;4113982;28;19923;-86
2023/07/19 03:56:44;;;;;;;;;;;14.60;64.20;;;;;;4112368;28;19980;-87
2023/07/19 03:58:48;;;;;;;;;;;14.60;64.60;;;;;;4103400;28;19991;-86
2023/07/19 04:00:54;;;;;;;;;;;14.60;64.60;;;;;;4105239;28;19929;-87
2023/07/19 04:02:54;;;;;;;;;;;14.60;64.80;;;;;;4104208;28;20296;-86
2023/07/19 04:04:56;;;;;;;;;;;14.60;65.20;;;;;;4105423;28;19921;-86
2023/07/19 04:07:10;;;;;;;;;;;14.60;65.30;;;;;;4107045;28;19929;-86
2023/07/19 04:09:11;;;;;;;;;;;14.70;65.30;;;;;;4105511;28;19918;-86
2023/07/19 04:11:33;;;;;;;;;;;14.60;65.50;;;;;;4103317;28;19918;-86
2023/07/19 04:13:56;;;;;;;;;;;14.60;65.40;;;;;;4106979;28;19989;-86
2023/07/19 04:16:17;;;;;;;;;;;14.70;65.60;;;;;;4106575;28;19922;-87
2023/07/19 04:18:38;;;;;;;;;;;14.60;65.90;;;;;;4106388;28;20304;-86
2023/07/19 04:20:59;;;;;;;;;;;14.70;66.30;;;;;;4103745;28;20277;-85
2023/07/19 04:23:20;;;;;;;;;;;14.70;66.20;;;;;;4103523;28;19922;-85
2023/07/19 04:25:41;;;;;;;;;;;14.70;66.10;;;;;;4104243;28;20095;-86
2023/07/19 04:28:01;;;;;;;;;;;14.70;66.20;;;;;;4103053;28;20303;-86
2023/07/19 04:30:22;;;;;;;;;;;14.70;66.20;;;;;;4103141;28;20616;-86
2023/07/19 04:32:42;;;;;;;;;;;14.80;66.10;;;;;;4106964;28;20304;-87
2023/07/19 04:35:03;;;;;;;;;;;14.70;66.10;;;;;;4103019;28;20423;-86
2023/07/19 04:37:24;;;;;;;;;;;14.80;66.30;;;;;;4104415;28;20038;-86
2023/07/19 04:39:24;;;;;;;;;;;14.80;66.50;;;;;;4090309;28;19928;-86
2023/07/19 04:41:25;;;;;;;;;;;14.80;66.80;;;;;;4103131;28;19925;-87
2023/07/19 04:43:26;;;;;;;;;;;14.80;66.70;;;;;;4102242;28;20451;-87
2023/07/19 04:45:45;;;;;;;;;;;14.90;66.60;;;;;;4103972;28;19922;-86
2023/07/19 04:47:46;;;;;;;;;;;14.90;66.70;;;;;;4104208;28;19933;-86
2023/07/19 04:49:46;;;;;;;;;;;14.90;66.80;;;;;;4102984;28;20372;-87
2023/07/19 04:51:47;;;;;;;;;;;14.90;66.70;;;;;;4100561;28;19922;-87
2023/07/19 04:53:48;;;;;;;;;;;15.00;66.90;;;;;;4102733;28;20072;-86
2023/07/19 04:55:50;;;;;;;;;;;15.00;66.80;;;;;;4103994;28;19965;-87
2023/07/19 04:57:50;;;;;;;;;;;15.10;67.20;;;;;;4085660;28;20045;-85
2023/07/19 04:59:51;;;;;;;;;;;15.10;67.00;;;;;;4104522;28;20540;-86
2023/07/19 05:01:51;;;;;;;;;;;15.10;67.10;;;;;;4086403;28;19921;-86
2023/07/19 05:03:52;;;;;;;;;;;15.10;67.10;;;;;;4103406;28;19922;-87
2023/07/19 05:05:54;;;;;;;;;;;15.10;67.00;;;;;;4101227;28;19933;-86
2023/07/19 05:07:55;;;;;;;;;;;15.10;67.00;;;;;;4104621;28;19922;-87
2023/07/19 05:09:55;;;;;;;;;;;15.20;67.20;;;;;;4102449;28;19972;-86
2023/07/19 05:11:56;;;;;;;;;;;15.20;67.30;;;;;;4103580;28;19922;-86
2023/07/19 05:13:56;;;;;;;;;;;15.30;67.30;;;;;;4105871;28;19945;-87
2023/07/19 05:15:59;;;;;;;;;;;15.30;68.20;;;;;;4123817;28;20602;-87
2023/07/19 05:18:00;;;;;;;;;;;15.20;68.70;;;;;;4107331;28;19915;-87
2023/07/19 05:20:01;;;;;;;;;;;15.30;68.30;;;;;;4104436;28;19926;-87
2023/07/19 05:22:03;;;;;;;;;;;15.40;68.10;;;;;;4105593;28;19922;-87
2023/07/19 05:24:04;;;;;;;;;;;15.40;68.10;;;;;;4121987;28;20518;-88
2023/07/19 05:26:04;;;;;;;;;;;15.40;68.10;;;;;;4106239;28;19926;-87
2023/07/19 05:28:05;;;;;;;;;;;15.40;67.50;;;;;;4104458;28;19933;-86
2023/07/19 05:30:06;;;;;;;;;;;15.50;67.20;;;;;;4103684;28;19914;-86
2023/07/19 05:32:07;;;;;;;;;;;15.50;67.60;;;;;;4105787;28;19965;-86
2023/07/19 05:34:08;;;;;;;;;;;15.50;68.30;;;;;;4104522;28;21556;-86
2023/07/19 05:36:09;;;;;;;;;;;15.60;69.10;;;;;;4107502;28;20482;-85
2023/07/19 05:38:10;;;;;;;;;;;15.50;69.70;;;;;;4103682;28;20329;-85
2023/07/19 05:40:11;;;;;;;;;;;15.60;69.20;;;;;;4105101;28;19922;-86
2023/07/19 05:42:12;;;;;;;;;;;15.60;69.30;;;;;;4104986;28;20163;-86
2023/07/19 05:44:12;;;;;;;;;;;15.60;69.80;;;;;;4105362;28;19919;-85
2023/07/19 05:46:13;;;;;;;;;;;15.60;68.90;;;;;;4089724;28;19923;-86
2023/07/19 05:48:45;;;;;;;;;;;15.70;68.80;;;;;;4106458;28;19924;-86
2023/07/19 05:51:07;;;;;;;;;;;15.70;68.50;;;;;;4107701;28;19944;-86
2023/07/19 05:53:08;;;;;;;;;;;15.70;68.40;;;;;;4109978;28;19970;-86
2023/07/19 05:55:08;;;;;;;;;;;15.80;68.50;;;;;;4115567;28;19894;-87
2023/07/19 05:57:09;;;;;;;;;;;15.80;68.30;;;;;;4128668;28;19917;-89
2023/07/19 05:59:10;;;;;;;;;;;15.80;68.40;;;;;;4118038;28;19934;-87
2023/07/19 06:01:14;;;;;;;;;;;15.90;68.40;;;;;;4101645;28;21454;-87
2023/07/19 06:03:16;;;;;;;;;;;15.90;68.30;;;;;;4098292;28;20934;-87
2023/07/19 06:05:17;;;;;;;;;;;15.90;68.30;;;;;;4105349;28;20254;-89
2023/07/19 06:07:20;;;;;;;;;;;16.00;68.30;;;;;;4104531;28;19925;-85
2023/07/19 06:09:21;;;;;;;;;;;16.00;68.80;;;;;;4104240;28;19914;-86
2023/07/19 06:11:22;;;;;;;;;;;16.00;68.50;;;;;;4104122;28;19914;-87
2023/07/19 06:13:22;;;;;;;;;;;16.00;68.40;;;;;;4103968;28;20421;-86
2023/07/19 06:15:23;;;;;;;;;;;16.10;68.50;;;;;;4105975;28;19945;-87
2023/07/19 06:17:24;;;;;;;;;;;16.10;68.50;;;;;;4103129;28;19926;-87
2023/07/19 06:20:04;;;;;;;;;;;16.20;68.30;;;;;;4088388;28;19914;-87
2023/07/19 06:22:27;;;;;;;;;;;16.20;68.00;;;;;;4078908;28;20013;-86
2023/07/19 06:24:27;;;;;;;;;;;16.30;68.00;;;;;;4101168;28;19945;-86
2023/07/19 06:26:29;;;;;;;;;;;16.20;68.10;;;;;;4105338;28;19914;-87
2023/07/19 06:28:30;;;;;;;;;;;16.30;68.40;;;;;;4104788;28;20504;-86
2023/07/19 06:30:31;;;;;;;;;;;16.30;68.70;;;;;;4119153;28;19917;-86
2023/07/19 06:32:32;;;;;;;;;;;16.40;68.30;;;;;;4104800;28;19930;-88
2023/07/19 06:34:32;;;;;;;;;;;16.40;67.80;;;;;;4103417;28;20391;-86
2023/07/19 06:36:33;;;;;;;;;;;16.30;67.50;;;;;;4104073;28;19929;-86
2023/07/19 06:38:43;;;;;;;;;;;16.40;67.00;;;;;;4105858;28;19953;-86
2023/07/19 06:41:11;;;;;;;;;;;;;;;;;;;;;
2023/07/19 06:43:30;;;;;;;;;;;16.40;67.20;;;;;;4107520;28;19972;-87
2023/07/19 06:45:32;;;;;;;;;;;16.50;66.60;;;;;;4103694;28;20384;-86
2023/07/19 06:47:33;;;;;;;;;;;16.50;66.60;;;;;;4103474;28;19977;-87
2023/07/19 06:49:33;;;;;;;;;;;16.50;66.60;;;;;;4106071;28;19946;-86
2023/07/19 06:51:34;;;;;;;;;;;16.50;66.60;;;;;;4107604;28;19925;-85
2023/07/19 06:53:35;;;;;;;;;;;16.50;66.60;;;;;;4103329;28;19933;-86
2023/07/19 06:55:42;;;;;;;;;;;16.50;66.20;;;;;;4103370;28;19910;-86
2023/07/19 06:58:09;;;;;;;;;;;16.60;66.40;;;;;;4092242;28;20005;-86
2023/07/19 07:00:10;;;;;;;;;;;16.60;66.50;;;;;;4104311;28;19922;-86
2023/07/19 07:02:11;;;;;;;;;;;16.60;66.50;;;;;;4104868;28;19918;-86
2023/07/19 07:04:31;;;;;;;;;;;16.70;66.50;;;;;;4106083;28;19914;-86
2023/07/19 07:06:52;;;;;;;;;;;16.70;66.40;;;;;;4101764;28;19992;-88
2023/07/19 07:09:14;;;;;;;;;;;16.80;66.70;;;;;;4102375;28;19929;-87
2023/07/19 07:11:59;;;;;;;;;;;16.70;67.00;;;;;;4104212;28;19918;-88
2023/07/19 07:14:23;;;;;;;;;;;16.90;66.60;;;;;;4100709;28;19981;-87
2023/07/19 07:16:23;;;;;;;;;;;17.00;66.70;;;;;;4102757;28;20380;-87
2023/07/19 07:18:24;;;;;;;;;;;17.00;66.70;;;;;;4102521;28;19929;-88
2023/07/19 07:20:24;;;;;;;;;;;17.10;66.70;;;;;;4107290;28;20283;-87
2023/07/19 07:22:25;;;;;;;;;;;17.10;66.80;;;;;;4108033;28;20383;-87
2023/07/19 07:24:26;;;;;;;;;;;17.20;67.00;;;;;;4107806;28;19922;-87
2023/07/19 07:26:35;;;;;;;;;;;17.30;67.30;;;;;;4105162;28;20287;-87
2023/07/19 07:28:36;;;;;;;;;;;17.30;66.70;;;;;;4088203;28;19974;-87
2023/07/19 07:30:43;;;;;;;;;;;17.40;67.00;;;;;;4104345;28;20315;-87
2023/07/19 07:32:44;;;;;;;;;;;17.50;67.00;;;;;;4088427;28;19921;-87
2023/07/19 07:35:13;;;;;;;;;;;17.60;66.60;;;;;;4091730;28;19911;-88
2023/07/19 07:37:13;;;;;;;;;;;17.70;66.10;;;;;;4107749;28;19918;-87
2023/07/19 07:39:14;;;;;;;;;;;17.70;66.00;;;;;;4092199;28;20371;-87
2023/07/19 07:41:15;;;;;;;;;;;17.70;66.00;;;;;;4102371;28;19922;-87
2023/07/19 07:43:15;;;;;;;;;;;17.80;65.30;;;;;;4106827;28;20311;-88
2023/07/19 07:45:19;;;;;;;;;;;18.00;65.10;;;;;;4116525;28;19997;-89
2023/07/19 07:47:22;;;;;;;;;;;18.00;64.90;;;;;;4088099;28;20385;-87
2023/07/19 07:49:23;;;;;;;;;;;18.10;64.90;;;;;;4107710;28;20026;-88
2023/07/19 07:51:24;;;;;;;;;;;18.10;65.00;;;;;;4087259;28;19970;-88
2023/07/19 07:53:24;;;;;;;;;;;18.20;64.60;;;;;;4104245;28;19918;-87
2023/07/19 07:55:25;;;;;;;;;;;18.20;64.30;;;;;;4107412;28;20224;-88
2023/07/19 07:57:26;;;;;;;;;;;18.30;63.00;;;;;;4100742;28;19961;-88
2023/07/19 07:59:29;;;;;;;;;;;18.30;62.80;;;;;;4101910;28;19989;-90
2023/07/19 08:01:38;;;;;;;;;;;18.30;62.60;;;;;;4098492;28;20349;-88
2023/07/19 08:03:48;;;;;;;;;;;18.40;62.80;;;;;;4087373;28;19918;-89
2023/07/19 08:05:54;;;;;;;;;;;18.40;61.60;;;;;;4091336;28;20036;-88
2023/07/19 08:07:54;;;;;;;;;;;18.40;61.40;;;;;;4086374;28;20542;-89
2023/07/19 08:09:55;;;;;;;;;;;18.50;61.80;;;;;;4090436;28;19915;-89
2023/07/19 08:11:56;;;;;;;;;;;18.50;60.90;;;;;;4103654;28;20044;-89
2023/07/19 08:13:56;;;;;;;;;;;18.50;60.50;;;;;;4105372;28;19976;-88
2023/07/19 08:15:59;;;;;;;;;;;18.60;61.10;;;;;;4105827;28;19918;-89
2023/07/19 08:18:10;;;;;;;;;;;18.60;61.00;;;;;;4118968;28;19921;-88
2023/07/19 08:20:12;;;;;;;;;;;18.60;60.70;;;;;;4101265;28;19947;-91
2023/07/19 08:22:27;;;;;;;;;;;18.70;60.50;;;;;;4086334;28;20034;-89
2023/07/19 08:24:48;;;;;;;;;;;18.60;60.30;;;;;;4107066;28;19929;-88
2023/07/19 08:27:08;;;;;;;;;;;18.60;60.20;;;;;;4102262;28;19914;-90
2023/07/19 08:29:29;;;;;;;;;;;18.60;59.60;;;;;;4102210;28;19925;-89
2023/07/19 08:31:49;;;;;;;;;;;18.60;59.80;;;;;;4103813;28;19918;-89
2023/07/19 08:34:10;;;;;;;;;;;18.60;59.90;;;;;;4104545;28;19997;-87
2023/07/19 08:36:31;;;;;;;;;;;18.60;59.80;;;;;;4109874;28;19925;-89
2023/07/19 08:39:07;;;;;;;;;;;18.60;59.80;;;;;;4107635;28;19922;-88
2023/07/19 08:43:33;;;;;;;;;;;18.50;59.50;;;;;;4147061;23;20080;-88
2023/07/19 08:45:56;;;;;;;;;;;18.60;59.60;;;;;;4159226;28;19917;-88
2023/07/19 08:48:17;;;;;;;;;;;18.50;59.60;;;;;;4162958;28;19905;-92
2023/07/19 08:50:38;;;;;;;;;;;18.50;59.60;;;;;;4163385;28;19984;-92
2023/07/19 08:53:02;;;;;;;;;;;18.40;59.60;;;;;;4148372;28;19929;-89
2023/07/19 08:55:06;;;;;;;;;;;18.50;59.60;;;;;;4148960;28;20410;-89
2023/07/19 08:57:07;;;;;;;;;;;18.40;59.60;;;;;;4143884;28;19941;-90
2023/07/19 08:59:13;;;;;;;;;;;18.40;59.70;;;;;;4128679;28;19953;-88
2023/07/19 09:01:14;;;;;;;;;;;18.30;59.60;;;;;;4128917;28;19977;-89
2023/07/19 09:03:15;;;;;;;;;;;18.40;59.70;;;;;;4128009;28;19922;-89
2023/07/19 09:05:32;;;;;;;;;;;;;;;;;;;;;
2023/07/19 09:07:37;;;;;;;;;;;18.30;59.70;;;;;;4145816;28;19913;-89
2023/07/19 09:09:40;;;;;;;;;;;18.40;59.80;;;;;;4145070;28;20407;-90
2023/07/19 09:11:50;;;;;;;;;;;18.30;59.80;;;;;;4136102;28;19925;-89
2023/07/19 09:14:01;;;;;;;;;;;18.30;59.70;;;;;;4143703;28;19924;-88
2023/07/19 09:16:06;;;;;;;;;;;18.30;59.80;;;;;;4142548;28;19925;-89
2023/07/19 09:18:14;;;;;;;;;;;18.30;59.80;;;;;;4122529;28;19922;-87
2023/07/19 09:20:19;;;;;;;;;;;18.30;59.90;;;;;;4143825;28;19960;-88
2023/07/19 09:22:40;;;;;;;;;;;18.30;59.80;;;;;;4141812;28;19943;-87
2023/07/19 09:25:15;;;;;;;;;;;18.30;59.80;;;;;;4156721;28;19945;-88
2023/07/19 09:27:25;;;;;;;;;;;18.20;59.90;;;;;;4086069;28;20013;-87
2023/07/19 09:29:32;;;;;;;;;;;18.20;59.90;;;;;;4142677;28;19953;-88
2023/07/19 09:32:04;;;;;;;;;;;18.20;60.10;;;;;;4135874;28;19922;-87
2023/07/19 09:34:17;;;;;;;;;;;18.10;60.10;;;;;;4152475;28;20397;-87
2023/07/19 09:39:47;;;;;;;;;;;18.10;60.60;;;;;;4141925;28;19918;-87
2023/07/19 09:42:17;;;;;;;;;;;18.10;61.00;;;;;;4147006;28;19929;-88
2023/07/19 09:45:02;;;;;;;;;;;18.10;61.10;;;;;;4140123;28;19941;-86
2023/07/19 09:47:31;;;;;;;;;;;18.10;61.40;;;;;;4141612;28;19930;-88
2023/07/19 09:49:53;;;;;;;;;;;18.10;61.70;;;;;;4135212;28;19925;-87
2023/07/19 09:52:24;;;;;;;;;;;18.10;61.70;;;;;;4138431;28;20007;-86
2023/07/19 09:54:45;;;;;;;;;;;18.10;61.60;;;;;;4138277;28;19925;-88
2023/07/19 09:56:50;;;;;;;;;;;18.10;61.80;;;;;;4123956;28;20380;-86
2023/07/19 09:58:52;;;;;;;;;;;18.10;62.20;;;;;;4157349;28;19917;-87
2023/07/19 10:00:53;;;;;;;;;;;18.10;62.00;;;;;;4136718;28;19918;-87
2023/07/19 10:02:53;;;;;;;;;;;18.10;62.10;;;;;;4118522;28;19945;-87
2023/07/19 10:05:04;;;;;;;;;;;18.10;62.20;;;;;;4136281;28;19914;-86
2023/07/19 10:07:12;;;;;;;;;;;18.00;62.40;;;;;;4139624;28;19924;-86
2023/07/19 10:09:23;;;;;;;;;;;18.00;62.40;;;;;;4123901;28;20012;-86
2023/07/19 10:11:25;;;;;;;;;;;17.90;62.40;;;;;;4138840;28;19925;-88
2023/07/19 10:13:49;;;;;;;;;;;17.90;62.30;;;;;;4137183;28;19949;-86
2023/07/19 10:15:58;;;;;;;;;;;17.90;62.40;;;;;;4137121;28;20005;-87
2023/07/19 10:18:01;;;;;;;;;;;17.90;62.80;;;;;;4136844;28;19941;-87
2023/07/19 10:20:21;;;;;;;;;;;18.00;62.60;;;;;;4142453;28;20394;-86
2023/07/19 10:22:21;;;;;;;;;;;17.90;62.30;;;;;;4153012;28;19910;-86
2023/07/19 10:24:23;;;;;;;;;;;17.90;63.10;;;;;;4147606;28;19918;-88
2023/07/19 10:26:44;;;;;;;;;;;17.90;64.00;;;;;;4157760;28;19925;-88
2023/07/19 10:28:59;;;;;;;;;;;17.90;64.10;;;;;;4168172;28;19969;-88
2023/07/19 10:31:22;;;;;;;;;;;17.90;63.70;;;;;;4157331;28;19941;-88
2023/07/19 10:33:43;;;;;;;;;;;18.00;64.30;;;;;;4156826;28;19928;-87
2023/07/19 10:36:13;;;;;;;;;;;18.00;64.50;;;;;;4158131;28;19918;-87
2023/07/19 10:38:37;;;;;;;;;;;17.90;64.40;;;;;;4141044;28;19918;-87
2023/07/19 10:41:12;;;;;;;;;;;18.00;64.20;;;;;;4140071;28;19917;-88
2023/07/19 10:43:34;;;;;;;;;;;18.00;63.70;;;;;;4138637;28;20109;-87
2023/07/19 10:45:59;;;;;;;;;;;17.90;62.90;;;;;;4150450;28;19920;-87
2023/07/19 10:48:36;;;;;;;;;;;17.90;62.70;;;;;;4137050;28;19979;-87
2023/07/19 10:51:03;;;;;;;;;;;17.80;63.10;;;;;;4135982;28;19914;-87
2023/07/19 10:53:24;;;;;;;;;;;17.70;62.70;;;;;;4151436;28;19929;-87
2023/07/19 10:55:51;;;;;;;;;;;17.80;63.40;;;;;;4136685;28;19921;-87
2023/07/19 10:58:17;;;;;;;;;;;17.70;63.60;;;;;;4140035;28;19913;-85
2023/07/19 11:00:27;;;;;;;;;;;17.60;62.90;;;;;;4138863;28;19999;-85
2023/07/19 11:02:31;;;;;;;;;;;17.60;63.00;;;;;;4124235;28;19925;-87
2023/07/19 11:05:07;;;;;;;;;;;17.60;62.60;;;;;;4119440;28;19928;-87
2023/07/19 11:07:08;;;;;;;;;;;17.60;62.60;;;;;;4136817;28;20425;-88
2023/07/19 11:09:09;;;;;;;;;;;17.60;63.00;;;;;;4140394;28;19913;-88
2023/07/19 11:11:32;;;;;;;;;;;17.60;63.10;;;;;;4142303;28;19971;-87
2023/07/19 11:13:55;;;;;;;;;;;17.60;63.30;;;;;;4133907;28;19925;-87
2023/07/19 11:16:18;;;;;;;;;;;17.60;63.70;;;;;;4138044;28;20004;-86
2023/07/19 11:18:27;;;;;;;;;;;17.60;63.80;;;;;;4119890;28;19922;-86
2023/07/19 11:20:32;;;;;;;;;;;17.60;64.00;;;;;;4138036;28;19914;-88
2023/07/19 11:23:01;;;;;;;;;;;17.60;63.90;;;;;;4128489;28;19968;-88
2023/07/19 11:25:22;;;;;;;;;;;17.60;64.10;;;;;;4137855;28;19967;-88
2023/07/19 11:27:43;;;;;;;;;;;17.60;64.00;;;;;;4136330;28;20403;-87
2023/07/19 11:30:06;;;;;;;;;;;17.60;64.30;;;;;;4136139;28;19917;-87
2023/07/19 11:32:27;;;;;;;;;;;17.60;64.00;;;;;;4136454;28;19928;-87
2023/07/19 11:34:52;;;;;;;;;;;17.60;64.40;;;;;;4136382;28;20001;-87
2023/07/19 11:36:55;;;;;;;;;;;17.60;63.90;;;;;;4150162;28;20081;-87
2023/07/19 11:38:56;;;;;;;;;;;17.70;64.00;;;;;;4132469;28;19928;-87
2023/07/19 11:40:57;;;;;;;;;;;17.60;63.90;;;;;;4131272;28;19921;-87
2023/07/19 11:43:00;;;;;;;;;;;17.60;63.80;;;;;;4142859;28;19909;-88
2023/07/19 11:45:11;;;;;;;;;;;17.60;63.90;;;;;;4159030;28;19934;-88
2023/07/19 11:47:11;;;;;;;;;;;17.60;63.70;;;;;;4145475;28;19945;-87
2023/07/19 11:49:15;;;;;;;;;;;17.60;63.80;;;;;;4139572;28;19988;-88
2023/07/19 11:51:19;;;;;;;;;;;17.60;63.90;;;;;;4134929;28;19928;-86
2023/07/19 11:53:32;;;;;;;;;;;17.60;63.80;;;;;;4124672;28;19930;-86
2023/07/19 11:55:34;;;;;;;;;;;17.50;63.70;;;;;;4121969;28;19924;-87
2023/07/19 11:58:02;;;;;;;;;;;17.50;63.70;;;;;;4137191;28;19955;-88
2023/07/19 12:00:23;;;;;;;;;;;17.60;63.90;;;;;;4133662;28;19917;-88
2023/07/19 12:02:49;;;;;;;;;;;17.60;63.90;;;;;;4130285;28;20016;-86
2023/07/19 12:05:14;;;;;;;;;;;17.40;63.70;;;;;;4135706;28;19917;-87
2023/07/19 12:07:40;;;;;;;;;;;17.40;64.00;;;;;;4135502;28;19913;-87
2023/07/19 12:10:02;;;;;;;;;;;17.50;64.30;;;;;;4137427;28;19917;-88
2023/07/19 12:12:23;;;;;;;;;;;17.40;64.20;;;;;;4138156;28;19929;-88
2023/07/19 12:14:44;;;;;;;;;;;17.40;64.50;;;;;;4138056;28;19963;-87
2023/07/19 12:16:44;;;;;;;;;;;17.40;64.80;;;;;;4120507;28;19929;-88
2023/07/19 12:18:45;;;;;;;;;;;17.40;64.70;;;;;;4113081;28;19968;-87
2023/07/19 12:20:45;;;;;;;;;;;17.40;64.80;;;;;;4121472;28;19925;-86
2023/07/19 12:22:49;;;;;;;;;;;17.40;64.50;;;;;;4116076;28;20020;-88
2023/07/19 12:24:53;;;;;;;;;;;17.40;64.20;;;;;;4151207;28;20414;-87
2023/07/19 12:26:57;;;;;;;;;;;17.40;64.30;;;;;;4129087;28;19925;-87
2023/07/19 12:28:57;;;;;;;;;;;17.40;64.00;;;;;;4133018;28;19932;-87
2023/07/19 12:31:00;;;;;;;;;;;17.30;63.90;;;;;;4133904;28;19933;-88
2023/07/19 12:33:04;;;;;;;;;;;17.30;63.80;;;;;;4132414;28;19918;-87